createdAt,value
2022-09-15T00:00:45.574Z,99952.34
2022-09-15T00:03:13.261Z,99939.00
2022-09-15T00:05:40.929Z,99935.66
2022-09-15T00:08:08.392Z,99945.56
2022-09-15T00:10:36.377Z,99935.06
2022-09-15T00:13:04.211Z,99936.63
2022-09-15T00:15:31.616Z,99939.75
2022-09-15T00:17:58.922Z,99951.84
2022-09-15T00:20:26.304Z,99949.50
2022-09-15T00:22:53.835Z,99950.63
2022-09-15T00:25:21.191Z,99941.63
2022-09-15T00:27:48.608Z,99946.09
2022-09-15T00:30:15.943Z,99950.53
2022-09-15T00:32:43.795Z,99947.44
2022-09-15T00:35:11.056Z,99953.94
2022-09-15T00:37:38.439Z,99956.97
2022-09-15T00:40:06.117Z,99961.84
2022-09-15T00:42:34.100Z,99971.31
2022-09-15T00:45:01.973Z,99968.69
2022-09-15T00:47:39.049Z,99960.59
2022-09-15T00:50:11.498Z,99937.59
2022-09-15T00:52:58.176Z,99947.97
2022-09-15T00:55:27.126Z,99947.06
2022-09-15T00:57:59.534Z,99944.50
2022-09-15T01:03:12.882Z,99950.91
2022-09-15T01:05:45.311Z,99950.72
2022-09-15T01:08:20.879Z,99946.06
2022-09-15T01:10:48.253Z,99945.41
2022-09-15T01:13:15.618Z,99932.09
2022-09-15T01:15:55.164Z,99933.31
2022-09-15T01:21:38.921Z,99922.47
2022-09-15T01:24:25.098Z,99927.50
2022-09-15T01:27:30.949Z,99926.00
2022-09-15T01:30:08.760Z,99920.09
2022-09-15T01:33:04.166Z,99918.13
2022-09-15T01:35:36.758Z,99915.88
2022-09-15T01:38:06.534Z,99912.06
2022-09-15T01:40:42.017Z,99910.03
2022-09-15T01:43:09.478Z,99899.38
2022-09-15T01:45:36.880Z,99906.91
2022-09-15T01:48:04.593Z,99901.16
2022-09-15T01:50:37.284Z,99896.56
2022-09-15T01:53:05.894Z,99906.69
2022-09-15T01:55:40.846Z,99909.69
2022-09-15T01:58:08.219Z,99892.00
2022-09-15T02:00:37.022Z,99889.31
2022-09-15T02:03:37.766Z,99896.56
2022-09-15T02:06:07.318Z,99894.50
2022-09-15T02:08:36.921Z,99895.56
2022-09-15T02:11:07.369Z,99885.50
2022-09-15T02:13:54.286Z,99878.53
2022-09-15T02:16:22.456Z,99881.31
2022-09-15T02:18:56.409Z,99883.19
2022-09-15T02:21:29.811Z,99878.50
2022-09-15T02:23:59.004Z,99882.31
2022-09-15T02:26:26.849Z,99882.69
2022-09-15T02:28:54.347Z,99879.63
2022-09-15T02:31:22.735Z,99881.56
2022-09-15T02:33:55.088Z,99880.22
2022-09-15T02:36:22.467Z,99870.38
2022-09-15T02:38:52.419Z,99878.50
2022-09-15T02:41:20.196Z,99887.78
2022-09-15T02:43:47.936Z,99881.31
2022-09-15T02:46:15.971Z,99874.72
2022-09-15T02:48:43.440Z,99879.63
2022-09-15T02:51:10.694Z,99873.06
2022-09-15T02:53:39.020Z,99879.91
2022-09-15T02:56:06.680Z,99888.03
2022-09-15T02:58:34.508Z,99899.44
2022-09-15T03:01:05.238Z,99894.91
2022-09-15T03:03:32.896Z,99907.03
2022-09-15T03:06:16.690Z,99907.50
2022-09-15T03:08:49.302Z,99910.81
2022-09-15T03:11:17.224Z,99899.28
2022-09-15T03:13:44.667Z,99906.31
2022-09-15T03:16:12.693Z,99914.09
2022-09-15T03:18:40.495Z,99921.47
2022-09-15T03:21:08.669Z,99923.47
2022-09-15T03:23:36.111Z,99926.88
2022-09-15T03:26:03.599Z,99924.53
2022-09-15T03:28:30.971Z,99928.38
2022-09-15T03:30:58.343Z,99926.88
2022-09-15T03:33:26.099Z,99920.50
2022-09-15T03:35:53.441Z,99912.63
2022-09-15T03:38:20.822Z,99919.16
2022-09-15T03:40:57.496Z,99917.59
2022-09-15T03:43:25.007Z,99906.81
2022-09-15T03:45:52.429Z,99919.22
2022-09-15T03:48:19.897Z,99911.47
2022-09-15T03:50:47.252Z,99904.53
2022-09-15T03:53:14.747Z,99904.41
2022-09-15T03:55:42.071Z,99900.88
2022-09-15T03:58:09.907Z,99898.53
2022-09-15T04:00:37.325Z,99903.94
2022-09-15T04:03:04.653Z,99895.31
2022-09-15T04:05:33.000Z,99888.78
2022-09-15T04:08:00.779Z,99891.69
2022-09-15T04:10:29.494Z,99891.28
2022-09-15T04:12:56.967Z,99881.72
2022-09-15T04:15:24.316Z,99878.59
2022-09-15T04:17:52.193Z,99874.72
2022-09-15T04:20:19.611Z,99873.88
2022-09-15T04:22:47.174Z,99863.81
2022-09-15T04:25:14.527Z,99870.56
2022-09-15T04:27:42.272Z,99864.31
2022-09-15T04:30:09.878Z,99874.84
2022-09-15T04:32:37.456Z,99872.28
2022-09-15T04:35:05.178Z,99866.75
2022-09-15T04:37:33.506Z,99863.59
2022-09-15T04:40:01.438Z,99862.28
2022-09-15T04:42:29.121Z,99859.56
2022-09-15T04:44:56.511Z,99858.94
2022-09-15T04:47:23.937Z,99868.03
2022-09-15T04:49:51.414Z,99867.00
2022-09-15T04:52:18.874Z,99866.44
2022-09-15T04:54:46.245Z,99873.69
2022-09-15T04:57:13.557Z,99871.31
2022-09-15T04:59:41.092Z,99867.69
2022-09-15T05:02:08.441Z,99871.06
2022-09-15T05:04:35.939Z,99868.09
2022-09-15T05:07:03.300Z,99852.84
2022-09-15T05:09:31.168Z,99855.22
2022-09-15T05:11:59.177Z,99863.19
2022-09-15T05:14:26.661Z,99865.13
2022-09-15T05:16:55.279Z,99870.03
2022-09-15T05:19:22.659Z,99873.03
2022-09-15T05:21:49.936Z,99873.31
2022-09-15T05:24:17.490Z,99869.94
2022-09-15T05:26:44.775Z,99855.88
2022-09-15T05:29:12.108Z,99859.78
2022-09-15T05:31:39.590Z,99852.66
2022-09-15T05:34:07.450Z,99843.00
2022-09-15T05:36:34.816Z,99843.22
2022-09-15T05:39:02.270Z,99843.09
2022-09-15T05:41:29.689Z,99853.84
2022-09-15T05:43:57.281Z,99854.50
2022-09-15T05:46:27.740Z,99857.09
2022-09-15T05:48:55.752Z,99857.25
2022-09-15T05:51:23.346Z,99861.81
2022-09-15T05:53:51.101Z,99859.69
2022-09-15T05:56:18.637Z,99866.78
2022-09-15T05:58:46.578Z,99866.09
2022-09-15T06:01:20.003Z,99866.88
2022-09-15T06:03:48.105Z,99857.41
2022-09-15T06:06:15.529Z,99862.28
2022-09-15T06:08:48.282Z,99862.59
2022-09-15T06:11:17.297Z,99850.53
2022-09-15T06:13:44.655Z,99853.19
2022-09-15T06:16:12.956Z,99848.53
2022-09-15T06:18:41.013Z,99842.25
2022-09-15T06:21:09.514Z,99841.44
2022-09-15T06:23:37.166Z,99826.72
2022-09-15T06:26:05.925Z,99827.38
2022-09-15T06:28:33.974Z,99836.09
2022-09-15T06:31:16.035Z,99828.72
2022-09-15T06:33:44.233Z,99844.56
2022-09-15T06:36:12.227Z,99825.03
2022-09-15T06:38:39.909Z,99835.63
2022-09-15T06:41:07.435Z,99837.78
2022-09-15T06:43:35.111Z,99844.72
2022-09-15T06:46:04.119Z,99848.69
2022-09-15T06:48:32.402Z,99856.13
2022-09-15T06:51:00.500Z,99860.22
2022-09-15T06:53:31.301Z,99853.19
2022-09-15T06:56:05.418Z,99859.59
2022-09-15T06:58:37.274Z,99864.72
2022-09-15T07:01:05.777Z,99863.06
2022-09-15T07:03:33.292Z,99858.22
2022-09-15T07:06:00.848Z,99861.25
2022-09-15T07:08:28.274Z,99865.34
2022-09-15T07:10:56.893Z,99869.28
2022-09-15T07:13:24.322Z,99869.69
2022-09-15T07:15:52.513Z,99863.34
2022-09-15T07:18:19.904Z,99872.41
2022-09-15T07:20:47.296Z,99868.03
2022-09-15T07:23:14.932Z,99858.59
2022-09-15T07:25:45.359Z,99852.13
2022-09-15T07:28:16.640Z,99840.44
2022-09-15T07:30:44.200Z,99839.19
2022-09-15T07:33:12.943Z,99840.00
2022-09-15T07:35:43.567Z,99830.59
2022-09-15T07:38:11.203Z,99840.38
2022-09-15T07:40:39.688Z,99838.72
2022-09-15T07:43:07.124Z,99835.09
2022-09-15T07:45:35.472Z,99838.41
2022-09-15T07:48:03.061Z,99828.59
2022-09-15T07:50:30.435Z,99825.00
2022-09-15T07:52:58.044Z,99829.44
2022-09-15T07:55:25.558Z,99820.53
2022-09-15T07:57:56.721Z,99822.50
2022-09-15T08:00:24.871Z,99823.22
2022-09-15T08:02:52.496Z,99829.84
2022-09-15T08:05:20.429Z,99820.66
2022-09-15T08:07:48.147Z,99821.44
2022-09-15T08:10:17.011Z,99812.91
2022-09-15T08:12:44.411Z,99818.97
2022-09-15T08:15:11.684Z,99812.97
2022-09-15T08:17:39.367Z,99808.84
2022-09-15T08:20:07.236Z,99805.03
2022-09-15T08:22:36.776Z,99807.25
2022-09-15T08:25:04.461Z,99785.28
2022-09-15T08:27:32.255Z,99786.19
2022-09-15T08:29:59.691Z,99785.53
2022-09-15T08:32:27.181Z,99780.25
2022-09-15T08:34:54.590Z,99768.03
2022-09-15T08:37:24.040Z,99768.81
2022-09-15T08:39:52.229Z,99758.16
2022-09-15T08:42:19.856Z,99758.69
2022-09-15T08:44:52.040Z,99753.00
2022-09-15T08:47:25.698Z,99744.53
2022-09-15T08:50:08.200Z,99740.47
2022-09-15T08:52:40.677Z,99730.56
2022-09-15T08:55:34.219Z,99726.03
2022-09-15T08:58:01.726Z,99713.41
2022-09-15T09:00:29.144Z,99736.72
2022-09-15T09:02:56.631Z,99720.63
2022-09-15T09:05:34.455Z,99701.19
2022-09-15T09:08:09.735Z,99702.38
2022-09-15T09:10:39.935Z,99705.88
2022-09-15T09:13:22.741Z,99711.66
2022-09-15T09:16:16.570Z,99708.63
2022-09-15T09:18:59.436Z,99697.31
2022-09-15T09:21:31.058Z,99687.06
2022-09-15T09:24:08.039Z,99694.72
2022-09-15T09:26:36.854Z,99695.69
2022-09-15T09:29:20.656Z,99696.75
2022-09-15T09:31:49.243Z,99693.38
2022-09-15T09:34:20.683Z,99685.59
2022-09-15T09:36:52.650Z,99689.03
2022-09-15T09:39:20.083Z,99694.34
2022-09-15T09:41:47.378Z,99684.84
2022-09-15T09:44:14.811Z,99690.03
2022-09-15T09:46:42.489Z,99679.09
2022-09-15T09:49:16.908Z,99685.97
2022-09-15T09:51:57.362Z,99694.00
2022-09-15T09:54:27.362Z,99686.47
2022-09-15T09:56:55.678Z,99693.50
2022-09-15T09:59:41.465Z,99694.94
2022-09-15T10:02:11.714Z,99697.50
2022-09-15T10:04:39.970Z,99690.66
2022-09-15T10:07:08.148Z,99692.28
2022-09-15T10:09:35.671Z,99693.56
2022-09-15T10:12:04.227Z,99691.44
2022-09-15T10:14:33.513Z,99696.97
2022-09-15T10:17:02.355Z,99691.16
2022-09-15T10:19:34.145Z,99685.97
2022-09-15T10:22:01.697Z,99691.25
2022-09-15T10:24:36.726Z,99687.44
2022-09-15T10:27:27.699Z,99688.84
2022-09-15T10:29:55.764Z,99686.78
2022-09-15T10:32:25.523Z,99685.13
2022-09-15T10:35:07.134Z,99690.28
2022-09-15T10:37:43.996Z,99697.03
2022-09-15T10:40:22.209Z,99705.34
2022-09-15T10:42:49.692Z,99712.78
2022-09-15T10:45:22.990Z,99708.25
2022-09-15T10:47:50.510Z,99700.84
2022-09-15T10:50:24.006Z,99709.00
2022-09-15T10:53:10.733Z,99705.88
2022-09-15T10:55:53.248Z,99709.38
2022-09-15T10:58:30.152Z,99705.59
2022-09-15T11:00:59.942Z,99702.28
2022-09-15T11:03:31.981Z,99694.75
2022-09-15T11:06:38.198Z,99691.94
2022-09-15T11:09:08.766Z,99681.03
2022-09-15T11:11:48.728Z,99681.50
2022-09-15T11:14:34.786Z,99672.41
2022-09-15T11:17:10.234Z,99665.66
2022-09-15T11:19:43.862Z,99658.56
2022-09-15T11:22:14.081Z,99655.09
2022-09-15T11:24:43.128Z,99657.91
2022-09-15T11:27:16.629Z,99653.78
2022-09-15T11:29:47.109Z,99648.69
2022-09-15T11:32:24.916Z,99633.28
2022-09-15T11:34:54.401Z,99635.63
2022-09-15T11:37:23.460Z,99638.09
2022-09-15T11:39:58.662Z,99631.31
2022-09-15T11:42:27.153Z,99625.53
2022-09-15T11:44:54.630Z,99618.25
2022-09-15T11:47:33.176Z,99615.59
2022-09-15T11:50:00.520Z,99607.69
2022-09-15T11:52:30.827Z,99599.75
2022-09-15T11:55:03.996Z,99594.28
2022-09-15T11:57:36.751Z,99590.97
2022-09-15T12:00:07.174Z,99589.31
2022-09-15T12:02:42.508Z,99586.38
2022-09-15T12:05:10.047Z,99582.56
2022-09-15T12:08:04.202Z,99589.00
2022-09-15T12:10:41.578Z,99572.97
2022-09-15T12:13:13.050Z,99573.81
2022-09-15T12:15:40.547Z,99568.69
2022-09-15T12:18:38.093Z,99565.88
2022-09-15T12:21:18.806Z,99560.91
2022-09-15T12:23:46.169Z,99558.59
2022-09-15T12:26:16.516Z,99562.88
2022-09-15T12:28:46.832Z,99547.38
2022-09-15T12:31:15.436Z,99553.63
2022-09-15T12:33:42.870Z,99549.03
2022-09-15T12:36:28.821Z,99549.97
2022-09-15T12:38:56.310Z,99541.22
2022-09-15T12:41:23.631Z,99546.19
2022-09-15T12:43:58.489Z,99549.81
2022-09-15T12:46:25.858Z,99540.91
2022-09-15T12:48:54.331Z,99528.47
2022-09-15T12:51:22.685Z,99531.13
2022-09-15T12:53:51.131Z,99529.47
2022-09-15T12:56:23.555Z,99526.47
2022-09-15T12:58:51.078Z,99527.81
2022-09-15T13:01:18.855Z,99528.59
2022-09-15T13:03:48.936Z,99532.34
2022-09-15T13:06:34.228Z,99517.28
2022-09-15T13:09:06.311Z,99511.97
2022-09-15T13:11:34.889Z,99514.38
2022-09-15T13:14:08.343Z,99515.38
2022-09-15T13:16:43.935Z,99513.66
2022-09-15T13:19:20.766Z,99511.47
2022-09-15T13:21:59.153Z,99523.69
2022-09-15T13:24:50.401Z,99514.09
2022-09-15T13:27:26.848Z,99530.13
2022-09-15T13:30:13.253Z,99527.31
2022-09-15T13:32:53.129Z,99512.56
2022-09-15T13:35:39.895Z,99518.66
2022-09-15T13:38:29.117Z,99521.09
2022-09-15T13:40:58.357Z,99519.38
2022-09-15T13:43:44.653Z,99514.88
2022-09-15T13:46:32.798Z,99519.38
2022-09-15T13:49:02.873Z,99516.69
2022-09-15T13:51:32.787Z,99512.84
2022-09-15T13:54:02.748Z,99516.47
2022-09-15T13:56:32.309Z,99503.56
2022-09-15T13:59:08.397Z,99508.53
2022-09-15T14:01:42.635Z,99507.56
2022-09-15T14:04:10.160Z,99497.13
2022-09-15T14:06:38.633Z,99505.91
2022-09-15T14:09:11.937Z,99513.94
2022-09-15T14:14:28.801Z,99506.94
2022-09-15T14:16:59.189Z,99503.34
2022-09-15T14:19:35.553Z,99504.13
2022-09-15T14:22:25.813Z,99507.13
2022-09-15T14:27:59.322Z,99516.66
2022-09-15T14:30:36.932Z,99505.41
2022-09-15T14:33:17.319Z,99498.59
2022-09-15T14:35:47.243Z,99501.31
2022-09-15T14:38:24.479Z,99489.91
2022-09-15T14:40:57.853Z,99496.56
2022-09-15T14:43:30.653Z,99492.81
2022-09-15T14:46:38.411Z,99495.75
2022-09-15T14:49:21.111Z,99487.19
2022-09-15T14:51:55.989Z,99488.13
2022-09-15T14:54:46.994Z,99485.19
2022-09-15T14:57:18.081Z,99478.56
2022-09-15T14:59:57.715Z,99483.81
2022-09-15T15:02:56.951Z,99491.31
2022-09-15T15:05:34.495Z,99490.13
2022-09-15T15:08:30.689Z,99493.78
2022-09-15T15:11:20.494Z,99502.88
2022-09-15T15:13:57.297Z,99500.34
2022-09-15T15:16:27.315Z,99505.69
2022-09-15T15:19:45.636Z,99509.84
2022-09-15T15:22:25.224Z,99503.59
2022-09-15T15:24:56.541Z,99502.75
2022-09-15T15:27:50.899Z,99505.06
2022-09-15T15:30:52.948Z,99508.22
2022-09-15T15:33:25.827Z,99504.56
2022-09-15T15:36:12.680Z,99500.09
2022-09-15T15:38:52.131Z,99505.91
2022-09-15T15:41:27.281Z,99507.91
2022-09-15T15:44:22.286Z,99513.81
2022-09-15T15:59:23.343Z,99528.56
2022-09-15T16:01:51.606Z,99527.06
2022-09-15T16:04:19.061Z,99524.94
2022-09-15T16:06:46.488Z,99523.28
2022-09-15T16:09:13.912Z,99518.47
2022-09-15T16:11:42.246Z,99518.00
2022-09-15T16:14:11.300Z,99520.13
2022-09-15T16:16:39.737Z,99523.97
2022-09-15T16:19:08.786Z,99520.31
2022-09-15T16:21:40.011Z,99516.16
2022-09-15T16:24:11.792Z,99513.38
2022-09-15T16:26:39.554Z,99518.47
2022-09-15T16:29:07.111Z,99515.50
2022-09-15T16:31:35.382Z,99525.59
2022-09-15T16:34:03.021Z,99525.09
2022-09-15T16:36:31.126Z,99525.94
2022-09-15T16:38:59.017Z,99537.81
2022-09-15T16:41:27.121Z,99536.38
2022-09-15T16:43:56.007Z,99534.50
2022-09-15T16:46:23.693Z,99532.38
2022-09-15T16:48:51.201Z,99526.09
2022-09-15T16:51:28.845Z,99525.59
2022-09-15T16:53:57.394Z,99529.75
2022-09-15T16:56:24.890Z,99533.69
2022-09-15T16:58:57.447Z,99525.63
2022-09-15T17:01:27.243Z,99534.88
2022-09-15T17:03:56.037Z,99544.63
2022-09-15T17:06:23.646Z,99543.63
2022-09-15T17:08:51.245Z,99549.56
2022-09-15T17:11:19.931Z,99549.91
2022-09-15T17:13:47.576Z,99560.13
2022-09-15T17:16:15.836Z,99561.47
2022-09-15T17:18:43.484Z,99572.38
2022-09-15T17:21:11.944Z,99576.16
2022-09-15T17:23:39.918Z,99567.88
2022-09-15T17:26:10.742Z,99578.16
2022-09-15T17:28:38.549Z,99581.78
2022-09-15T17:31:06.878Z,99580.28
2022-09-15T17:33:34.469Z,99582.59
2022-09-15T17:36:02.079Z,99582.09
2022-09-15T17:38:29.803Z,99593.00
2022-09-15T17:40:57.268Z,99594.66
2022-09-15T17:43:25.512Z,99595.47
2022-09-15T17:45:52.980Z,99576.84
2022-09-15T17:48:20.663Z,99572.84
2022-09-15T17:50:48.869Z,99565.25
2022-09-15T17:53:17.261Z,99564.63
2022-09-15T17:55:44.810Z,99549.56
2022-09-15T17:58:12.428Z,99541.47
2022-09-15T18:00:40.503Z,99549.41
2022-09-15T18:03:28.022Z,99541.50
2022-09-15T18:05:56.319Z,99531.72
2022-09-15T18:08:23.740Z,99532.56
2022-09-15T18:10:52.336Z,99533.91
2022-09-15T18:13:20.794Z,99546.06
2022-09-15T18:15:51.316Z,99533.16
2022-09-15T18:18:19.934Z,99537.16
2022-09-15T18:20:47.630Z,99544.09
2022-09-15T18:23:15.931Z,99541.75
2022-09-15T18:25:43.610Z,99533.00
2022-09-15T18:28:12.455Z,99531.03
2022-09-15T18:30:41.021Z,99528.75
2022-09-15T18:33:16.968Z,99533.34
2022-09-15T18:35:44.779Z,99536.81
2022-09-15T18:38:12.290Z,99538.13
2022-09-15T18:40:44.156Z,99532.00
2022-09-15T18:43:12.156Z,99532.81
2022-09-15T18:45:40.134Z,99535.16
2022-09-15T18:48:11.994Z,99539.91
2022-09-15T18:50:40.808Z,99533.66
2022-09-15T18:53:08.272Z,99533.66
2022-09-15T18:55:35.625Z,99539.75
2022-09-15T18:58:03.108Z,99550.34
2022-09-15T19:00:31.814Z,99547.53
2022-09-15T19:03:00.606Z,99551.47
2022-09-15T19:05:28.431Z,99533.34
2022-09-15T19:07:55.836Z,99545.56
2022-09-15T19:10:24.015Z,99541.59
2022-09-15T19:12:51.871Z,99537.13
2022-09-15T19:15:23.624Z,99532.69
2022-09-15T19:17:51.415Z,99521.28
2022-09-15T19:20:18.782Z,99526.59
2022-09-15T19:22:46.555Z,99520.13
2022-09-15T19:25:13.950Z,99518.16
2022-09-15T19:27:41.450Z,99515.69
2022-09-15T19:30:10.284Z,99516.03
2022-09-15T19:32:38.751Z,99498.38
2022-09-15T19:35:06.628Z,99487.63
2022-09-15T19:37:36.142Z,99484.34
2022-09-15T19:40:06.998Z,99485.16
2022-09-15T19:42:34.893Z,99490.28
2022-09-15T19:45:02.418Z,99494.13
2022-09-15T19:47:30.051Z,99493.91
2022-09-15T19:49:58.038Z,99498.56
2022-09-15T19:52:25.385Z,99499.06
2022-09-15T19:54:52.804Z,99499.75
2022-09-15T19:57:21.354Z,99501.19
2022-09-15T19:59:49.019Z,99508.66
2022-09-15T20:02:17.123Z,99496.59
2022-09-15T20:07:31.198Z,99496.25
2022-09-15T20:09:58.919Z,99492.97
2022-09-15T20:12:26.890Z,99493.63
2022-09-15T20:14:54.506Z,99489.00
2022-09-15T20:17:21.941Z,99493.31
2022-09-15T20:19:49.707Z,99490.66
2022-09-15T20:22:17.269Z,99481.41
2022-09-15T20:24:44.795Z,99485.69
2022-09-15T20:27:12.434Z,99483.22
2022-09-15T20:29:40.496Z,99477.13
2022-09-15T20:34:53.065Z,99467.69
2022-09-15T20:37:22.368Z,99465.53
2022-09-15T20:39:51.553Z,99457.47
2022-09-15T20:42:18.968Z,99457.47
2022-09-15T20:44:46.456Z,99457.78
2022-09-15T20:47:14.157Z,99452.69
2022-09-15T20:49:41.687Z,99459.28
2022-09-15T20:52:09.088Z,99459.97
2022-09-15T20:54:36.460Z,99460.09
2022-09-15T20:57:03.978Z,99465.22
2022-09-15T20:59:31.660Z,99446.44
2022-09-15T21:01:59.067Z,99445.56
2022-09-15T21:04:26.467Z,99445.94
2022-09-15T21:06:53.841Z,99442.78
2022-09-15T21:09:21.370Z,99437.34
2022-09-15T21:11:53.286Z,99442.75
2022-09-15T21:14:20.924Z,99436.66
2022-09-15T21:16:48.535Z,99442.75
2022-09-15T21:19:16.225Z,99444.22
2022-09-15T21:21:43.804Z,99435.94
2022-09-15T21:24:11.205Z,99438.25
2022-09-15T21:27:02.423Z,99436.47
2022-09-15T21:29:30.096Z,99437.81
2022-09-15T21:31:57.926Z,99435.63
2022-09-15T21:34:26.465Z,99431.34
2022-09-15T21:36:53.972Z,99436.66
2022-09-15T21:39:21.631Z,99440.47
2022-09-15T21:41:49.036Z,99446.06
2022-09-15T21:44:18.554Z,99430.91
2022-09-15T21:46:47.100Z,99426.78
2022-09-15T21:49:14.806Z,99426.28
2022-09-15T21:51:42.427Z,99428.75
2022-09-15T21:54:10.179Z,99419.88
2022-09-15T21:56:38.528Z,99420.31
2022-09-15T21:59:05.948Z,99428.09
2022-09-15T22:01:33.389Z,99423.81
2022-09-15T22:04:05.138Z,99435.69
2022-09-15T22:06:34.427Z,99433.72
2022-09-15T22:09:03.043Z,99435.69
2022-09-15T22:11:30.588Z,99430.22
2022-09-15T22:13:58.019Z,99435.66
2022-09-15T22:16:25.682Z,99436.16
2022-09-15T22:18:53.183Z,99439.16
2022-09-15T22:21:21.347Z,99439.94
2022-09-15T22:23:49.046Z,99443.75
2022-09-15T22:26:17.496Z,99433.03
2022-09-15T22:28:44.941Z,99447.75
2022-09-15T22:31:12.993Z,99449.72
2022-09-15T22:33:43.229Z,99447.91
2022-09-15T22:36:11.378Z,99456.66
2022-09-15T22:38:38.831Z,99459.47
2022-09-15T22:41:10.548Z,99470.69
2022-09-15T22:43:39.128Z,99466.88
2022-09-15T22:46:07.029Z,99465.41
2022-09-15T22:48:34.498Z,99469.19
2022-09-15T22:51:01.882Z,99465.53
2022-09-15T22:53:29.530Z,99461.59
2022-09-15T22:56:06.248Z,99467.03
2022-09-15T22:58:34.661Z,99460.91
2022-09-15T23:01:05.683Z,99465.41
2022-09-15T23:03:33.522Z,99466.22
2022-09-15T23:06:00.976Z,99466.88
2022-09-15T23:08:29.750Z,99468.66
2022-09-15T23:11:01.368Z,99471.13
2022-09-15T23:13:28.884Z,99462.72
2022-09-15T23:15:56.973Z,99465.03
2022-09-15T23:18:24.568Z,99462.72
2022-09-15T23:21:10.503Z,99470.63
2022-09-15T23:23:39.825Z,99475.13
2022-09-15T23:26:10.544Z,99479.88
2022-09-15T23:28:39.232Z,99483.03
2022-09-15T23:31:07.094Z,99484.53
2022-09-15T23:33:35.611Z,99479.53
2022-09-15T23:36:03.555Z,99479.41
2022-09-15T23:38:31.208Z,99485.66
2022-09-15T23:40:59.043Z,99471.97
2022-09-15T23:43:26.699Z,99484.81
2022-09-15T23:45:54.086Z,99483.19
2022-09-15T23:48:22.595Z,99485.63
2022-09-15T23:50:50.100Z,99470.63
2022-09-15T23:53:18.292Z,99470.31
2022-09-15T23:55:47.692Z,99473.78
2022-09-15T23:58:15.127Z,99471.63
